Flugplatz Köthen

Für EDCK sind keine METAR/TAF Berichte vorhanden.
Es werden die Flugwettermeldungen vom Flugplatz Leipzig Halle in 38 km Entfernung angezeigt.

Bericht für EDDP

vom 01.12. um 09:50 UTC

Wind 16 kt aus 210°

Sichtweite 10 km oder mehr

gering bewölkt in 1600 ft

aufgebrochene Bewölkung in 2000 ft

Temperatur 7.0°C

Taupunkt 4.0°C

Luftfeuchtigkeit 81%

Luftdruck 995 hPa

EDDP 010950Z 21016KT 180V240 9999 FEW016 BKN020 07/04 Q0995 TEMPO 21020G30KT

Prognose für EDDP

vom 01.12. um 05:00 UTC

Zwischen 06:00 UTC und 07:00 UTC

Wind 15 kt aus 220° in Böen 25 kt

Sichtweite 10 km oder mehr

aufgebrochene Bewölkung in 2000 ft


Zwischen 06:00 UTC und 08:00 UTC zeitweise mit einer Wahrscheinlichkeit von 30%

Sichtweite 3500 m

Regen

Sprühregen

aufgebrochene Bewölkung in 800 ft


Zwischen 07:00 und 10:00 UTC übergehend zu

Wind 20 kt aus 220° in Böen 35 kt

Sichtweite 10 km oder mehr

aufgebrochene Bewölkung in 2000 ft


Zwischen 20:00 UTC und 23:00 UTC zeitweise mit einer Wahrscheinlichkeit von 30%

Wind 25 kt aus 240° in Böen 40 kt


Am 02.12. zwischen 01:00 und 03:00 UTC übergehend zu

Wind 15 kt aus 250° in Böen 25 kt

Sichtweite 10 km oder mehr

aufgebrochene Bewölkung in 2000 ft

TAF EDDP 010500Z 0106/0206 22015G25KT 9999 BKN020 PROB30 TEMPO 0106/0108 3500 RADZ BKN008 BECMG 0107/0110 22020G35KT PROB30 TEMPO 0120/0123 24025G40KT BECMG 0201/0203 25015G25KT
Impressum